createdAt,value
2023-02-06T00:02:01.301Z,107.63
2023-02-06T00:04:03.414Z,105.82
2023-02-06T00:06:05.341Z,106.05
2023-02-06T00:08:06.782Z,111.90
2023-02-06T00:10:08.676Z,111.72
2023-02-06T00:12:10.286Z,99.75
2023-02-06T00:14:11.732Z,103.18
2023-02-06T00:16:18.587Z,100.38
2023-02-06T00:18:20.443Z,101.88
2023-02-06T00:20:21.965Z,98.75
2023-02-06T00:22:23.357Z,106.40
2023-02-06T00:24:25.033Z,93.95
2023-02-06T00:26:27.499Z,122.80
2023-02-06T00:28:28.980Z,125.78
2023-02-06T00:30:30.674Z,129.52
2023-02-06T00:32:32.197Z,117.03
2023-02-06T00:34:33.593Z,115.72
2023-02-06T00:36:35.298Z,108.28
2023-02-06T00:38:37.993Z,104.07
2023-02-06T00:40:39.598Z,104.00
2023-02-06T00:42:41.084Z,97.18
2023-02-06T00:44:42.512Z,103.75
2023-02-06T00:46:43.939Z,98.18
2023-02-06T00:48:45.770Z,96.07
2023-02-06T00:50:50.945Z,100.80
2023-02-06T00:52:52.460Z,91.07
2023-02-06T00:54:54.153Z,108.65
2023-02-06T00:56:55.589Z,105.68
2023-02-06T00:58:57.087Z,122.82
2023-02-06T01:00:58.848Z,114.72
2023-02-06T01:03:02.819Z,121.45
2023-02-06T01:05:04.806Z,117.18
2023-02-06T01:07:06.499Z,108.50
2023-02-06T01:09:07.907Z,110.47
2023-02-06T01:11:13.377Z,112.93
2023-02-06T01:13:14.867Z,110.82
2023-02-06T01:15:16.523Z,111.70
2023-02-06T01:17:17.984Z,110.13
2023-02-06T01:19:19.650Z,112.70
2023-02-06T01:21:23.780Z,109.30
2023-02-06T01:23:25.193Z,103.47
2023-02-06T01:25:26.911Z,106.35
2023-02-06T01:27:29.240Z,102.47
2023-02-06T01:29:30.636Z,104.53
2023-02-06T01:31:32.542Z,109.20
2023-02-06T01:33:37.323Z,95.90
2023-02-06T01:35:38.735Z,96.82
2023-02-06T01:37:41.188Z,103.85
2023-02-06T01:39:42.698Z,96.70
2023-02-06T01:41:44.123Z,107.30
2023-02-06T01:44:08.498Z,101.45
2023-02-06T01:46:10.706Z,100.18
2023-02-06T01:48:20.909Z,93.30
2023-02-06T01:50:22.915Z,93.28
2023-02-06T01:52:27.644Z,97.22
2023-02-06T01:54:29.127Z,95.80
2023-02-06T01:56:40.433Z,91.47
2023-02-06T01:58:44.724Z,100.22
2023-02-06T02:00:46.370Z,88.80
2023-02-06T02:02:49.492Z,99.30
2023-02-06T02:04:51.226Z,100.32
2023-02-06T02:07:15.213Z,97.85
2023-02-06T02:09:18.655Z,158.52
2023-02-06T02:11:28.147Z,137.90
2023-02-06T02:13:29.590Z,103.53
2023-02-06T02:15:52.665Z,113.32
2023-02-06T02:18:21.410Z,121.25
2023-02-06T02:20:41.724Z,98.55
2023-02-06T02:23:16.717Z,104.65
2023-02-06T02:25:54.605Z,99.40
2023-02-06T02:28:27.100Z,103.32
2023-02-06T02:30:50.097Z,147.57
2023-02-06T02:32:59.771Z,114.38
2023-02-06T02:35:35.498Z,101.97
2023-02-06T02:37:49.361Z,126.35
2023-02-06T02:39:56.999Z,135.23
2023-02-06T02:42:37.055Z,103.93
2023-02-06T02:44:55.507Z,140.68
2023-02-06T02:47:02.091Z,127.68
2023-02-06T02:49:09.352Z,134.32
2023-02-06T02:51:11.557Z,133.88
2023-02-06T02:53:13.965Z,128.15
2023-02-06T02:55:21.686Z,115.47
2023-02-06T02:57:28.907Z,123.05
2023-02-06T02:59:39.711Z,114.03
2023-02-06T03:01:47.986Z,106.72
2023-02-06T03:03:54.404Z,114.63
2023-02-06T03:06:22.478Z,122.15
2023-02-06T03:08:32.275Z,124.93
2023-02-06T03:10:44.670Z,133.68
2023-02-06T03:13:07.761Z,113.95
2023-02-06T03:15:12.371Z,125.60
2023-02-06T03:17:18.361Z,120.72
2023-02-06T03:19:48.049Z,110.65
2023-02-06T03:21:50.252Z,119.07
2023-02-06T03:23:56.002Z,114.35
2023-02-06T03:26:02.889Z,114.68
2023-02-06T03:28:14.070Z,116.93
2023-02-06T03:30:16.586Z,105.32
2023-02-06T03:32:28.364Z,105.05
2023-02-06T03:34:44.562Z,111.80
2023-02-06T03:36:46.476Z,117.10
2023-02-06T03:38:50.920Z,137.57
2023-02-06T03:40:54.546Z,123.45
2023-02-06T03:42:59.798Z,123.35
2023-02-06T03:45:06.182Z,115.38
2023-02-06T03:47:11.526Z,110.30
2023-02-06T03:49:16.674Z,110.72
2023-02-06T03:51:24.483Z,119.93
2023-02-06T03:53:26.400Z,119.68
2023-02-06T03:55:27.938Z,113.57
2023-02-06T03:57:32.582Z,114.28
2023-02-06T03:59:34.197Z,118.90
2023-02-06T04:01:40.716Z,160.98
2023-02-06T04:03:42.410Z,124.82
2023-02-06T04:05:43.934Z,113.00
2023-02-06T04:07:45.627Z,104.20
2023-02-06T04:09:47.287Z,105.97
2023-02-06T04:11:48.804Z,107.63
2023-02-06T04:13:50.244Z,120.22
2023-02-06T04:15:51.826Z,115.07
2023-02-06T04:18:00.328Z,121.00
2023-02-06T04:20:02.346Z,116.55
2023-02-06T04:22:04.834Z,120.25
2023-02-06T04:24:06.595Z,120.32
2023-02-06T04:26:08.023Z,109.97
2023-02-06T04:28:09.685Z,110.97
2023-02-06T04:30:11.866Z,118.60
2023-02-06T04:32:13.343Z,113.22
2023-02-06T04:34:14.764Z,121.85
2023-02-06T04:36:16.169Z,117.88
2023-02-06T04:38:17.623Z,141.00
2023-02-06T04:40:19.269Z,141.98
2023-02-06T04:42:20.760Z,137.35
2023-02-06T04:44:23.083Z,129.45
2023-02-06T04:46:25.669Z,134.00
2023-02-06T04:48:27.324Z,127.28
2023-02-06T04:50:28.814Z,124.63
2023-02-06T04:52:30.478Z,120.43
2023-02-06T04:54:32.857Z,125.55
2023-02-06T04:56:34.379Z,125.93
2023-02-06T04:58:37.368Z,117.47
2023-02-06T05:00:38.950Z,108.28
2023-02-06T05:02:40.402Z,115.47
2023-02-06T05:04:41.927Z,107.10
2023-02-06T05:06:43.829Z,119.85
2023-02-06T05:08:45.257Z,111.20
2023-02-06T05:10:46.794Z,105.07
2023-02-06T05:12:48.577Z,110.65
2023-02-06T05:14:50.100Z,122.03
2023-02-06T05:16:51.704Z,122.40
2023-02-06T05:18:57.013Z,123.40
2023-02-06T05:20:58.414Z,147.00
2023-02-06T05:22:59.999Z,137.45
2023-02-06T05:25:01.983Z,139.57
2023-02-06T05:27:06.438Z,143.32
2023-02-06T05:29:08.185Z,142.88
2023-02-06T05:31:10.022Z,157.63
2023-02-06T05:33:11.474Z,148.15
2023-02-06T05:35:13.032Z,165.38
2023-02-06T05:37:14.607Z,167.60
2023-02-06T05:39:16.028Z,170.32
2023-02-06T05:41:18.575Z,170.23
2023-02-06T05:43:20.188Z,184.60
2023-02-06T05:45:21.585Z,181.73
2023-02-06T05:47:23.345Z,210.98
2023-02-06T05:49:24.928Z,209.63
2023-02-06T05:51:26.383Z,193.63
2023-02-06T05:53:27.799Z,258.77
2023-02-06T05:55:29.449Z,218.65
2023-02-06T05:57:30.855Z,222.77
2023-02-06T05:59:32.666Z,211.75
2023-02-06T06:01:34.156Z,208.20
2023-02-06T06:03:35.626Z,204.73
2023-02-06T06:05:37.411Z,203.32
2023-02-06T06:07:39.220Z,205.13
2023-02-06T06:09:40.632Z,218.88
2023-02-06T06:11:42.276Z,199.05
2023-02-06T06:13:43.796Z,198.95
2023-02-06T06:15:45.230Z,200.45
2023-02-06T06:17:46.752Z,216.63
2023-02-06T06:19:48.224Z,205.63
2023-02-06T06:21:49.709Z,210.05
2023-02-06T06:23:51.298Z,206.35
2023-02-06T06:25:52.837Z,217.73
2023-02-06T06:27:54.324Z,204.82
2023-02-06T06:29:55.961Z,223.73
2023-02-06T06:31:58.195Z,215.25
2023-02-06T06:33:59.602Z,216.20
2023-02-06T06:36:01.096Z,232.10
2023-02-06T06:38:02.543Z,210.32
2023-02-06T06:40:04.254Z,221.27
2023-02-06T06:42:05.751Z,222.70
2023-02-06T06:44:07.198Z,233.75
2023-02-06T06:46:08.957Z,238.27
2023-02-06T06:48:10.523Z,217.60
2023-02-06T06:50:12.009Z,219.48
2023-02-06T06:52:23.272Z,224.85
2023-02-06T06:54:26.222Z,216.07
2023-02-06T06:56:27.654Z,222.35
2023-02-06T06:58:29.052Z,221.73
2023-02-06T07:00:30.617Z,216.10
2023-02-06T07:02:32.108Z,241.57
2023-02-06T07:04:33.659Z,224.02
2023-02-06T07:06:35.077Z,215.10
2023-02-06T07:08:37.242Z,211.80
2023-02-06T07:10:38.688Z,215.38
2023-02-06T07:12:40.292Z,219.98
2023-02-06T07:14:41.694Z,233.73
2023-02-06T07:16:43.099Z,221.63
2023-02-06T07:18:44.556Z,220.52
2023-02-06T07:20:46.147Z,244.50
2023-02-06T07:22:47.935Z,209.57
2023-02-06T07:24:49.616Z,197.18
2023-02-06T07:26:51.131Z,184.10
2023-02-06T07:28:52.542Z,177.57
2023-02-06T07:30:54.672Z,191.23
2023-02-06T07:32:56.502Z,189.10
2023-02-06T07:34:57.888Z,176.98
2023-02-06T07:36:59.501Z,167.60
2023-02-06T07:39:03.095Z,178.68
2023-02-06T07:43:07.281Z,165.27
2023-02-06T07:45:09.236Z,153.35
2023-02-06T07:47:10.642Z,145.43
2023-02-06T07:49:12.924Z,149.13
2023-02-06T07:51:14.666Z,153.20
2023-02-06T07:53:16.061Z,136.73
2023-02-06T07:55:17.742Z,145.80
2023-02-06T07:57:20.027Z,137.45
2023-02-06T07:59:21.505Z,138.05
2023-02-06T08:01:23.647Z,131.48
2023-02-06T08:03:25.257Z,144.35
2023-02-06T08:05:26.673Z,152.90
2023-02-06T08:07:28.158Z,140.32
2023-02-06T08:09:29.844Z,131.90
2023-02-06T08:11:31.301Z,133.77
2023-02-06T08:13:32.852Z,134.75
2023-02-06T08:15:34.722Z,140.70
2023-02-06T08:17:36.322Z,134.85
2023-02-06T08:19:37.754Z,133.27
2023-02-06T08:21:39.263Z,129.35
2023-02-06T08:23:41.306Z,125.95
2023-02-06T08:25:42.966Z,135.07
2023-02-06T08:27:44.511Z,142.88
2023-02-06T08:29:46.134Z,138.63
2023-02-06T08:31:47.964Z,131.45
2023-02-06T08:33:50.175Z,122.95
2023-02-06T08:35:51.549Z,121.57
2023-02-06T08:37:53.123Z,135.90
2023-02-06T08:39:54.594Z,132.95
2023-02-06T08:41:56.115Z,161.50
2023-02-06T08:43:59.800Z,155.20
2023-02-06T08:46:01.473Z,156.68
2023-02-06T08:48:03.104Z,165.48
2023-02-06T08:50:04.981Z,229.68
2023-02-06T08:52:06.461Z,122.82
2023-02-06T08:54:12.832Z,123.03
2023-02-06T08:56:14.466Z,146.32
2023-02-06T08:58:16.068Z,167.18
2023-02-06T09:00:17.845Z,122.40
2023-02-06T09:02:19.465Z,116.88
2023-02-06T09:04:21.362Z,108.03
2023-02-06T09:06:23.075Z,119.18
2023-02-06T09:08:24.645Z,109.93
2023-02-06T09:10:28.040Z,99.85
2023-02-06T09:12:29.738Z,105.80
2023-02-06T09:14:31.710Z,95.93
2023-02-06T09:16:33.984Z,105.40
2023-02-06T09:18:36.093Z,99.22
2023-02-06T09:20:37.524Z,95.60
2023-02-06T09:22:39.014Z,93.80
2023-02-06T09:24:40.567Z,82.82
2023-02-06T09:26:58.608Z,89.85
2023-02-06T09:29:03.275Z,89.25
2023-02-06T09:31:04.945Z,93.25
2023-02-06T09:33:06.514Z,85.88
2023-02-06T09:35:08.227Z,93.82
2023-02-06T09:37:09.642Z,85.10
2023-02-06T09:39:11.129Z,85.63
2023-02-06T09:41:22.393Z,95.18
2023-02-06T09:43:24.080Z,89.63
2023-02-06T09:45:28.942Z,219.80
2023-02-06T09:47:33.461Z,89.07
2023-02-06T09:49:40.916Z,102.65
2023-02-06T09:52:22.468Z,80.55
2023-02-06T09:55:25.506Z,89.78
2023-02-06T09:57:49.076Z,76.53
2023-02-06T10:00:04.232Z,110.57
2023-02-06T10:02:39.605Z,116.78
2023-02-06T10:04:53.115Z,118.10
2023-02-06T10:07:08.250Z,118.82
2023-02-06T10:09:15.710Z,217.88
2023-02-06T10:11:38.889Z,188.40
2023-02-06T10:13:58.185Z,207.07
2023-02-06T10:16:23.765Z,196.77
2023-02-06T10:18:50.075Z,116.13
2023-02-06T10:20:58.454Z,105.88
2023-02-06T10:23:24.376Z,75.40
2023-02-06T10:25:32.910Z,70.28
2023-02-06T10:27:35.649Z,71.82
2023-02-06T10:29:37.634Z,66.00
2023-02-06T10:31:39.644Z,62.08
2023-02-06T10:34:10.985Z,61.33
2023-02-06T10:36:49.997Z,63.92
2023-02-06T10:39:14.652Z,60.67
2023-02-06T10:41:39.375Z,64.72
2023-02-06T10:43:49.743Z,51.92
2023-02-06T10:46:20.748Z,47.25
2023-02-06T10:48:37.066Z,45.63
2023-02-06T10:50:51.009Z,38.83
2023-02-06T10:54:58.581Z,51.13
2023-02-06T10:57:00.847Z,47.88
2023-02-06T10:59:07.466Z,55.33
2023-02-06T11:01:25.092Z,52.67
2023-02-06T11:03:30.759Z,53.08
2023-02-06T11:05:32.317Z,49.58
2023-02-06T11:07:41.003Z,50.80
2023-02-06T11:09:42.602Z,46.13
2023-02-06T11:11:48.393Z,52.17
2023-02-06T11:13:55.503Z,52.40
2023-02-06T11:16:07.534Z,52.28
2023-02-06T11:18:17.417Z,52.33
2023-02-06T11:20:23.086Z,46.67
2023-02-06T11:22:31.243Z,49.05
2023-02-06T11:24:36.533Z,46.92
2023-02-06T11:26:57.628Z,52.95
2023-02-06T11:29:09.581Z,42.38
2023-02-06T11:31:11.319Z,40.08
2023-02-06T11:33:22.785Z,38.53
2023-02-06T11:35:31.026Z,43.60
2023-02-06T11:37:38.362Z,56.00
2023-02-06T11:39:39.807Z,50.63
2023-02-06T11:41:41.378Z,51.30
2023-02-06T11:43:42.858Z,47.60
2023-02-06T11:45:45.638Z,53.88
2023-02-06T11:47:47.359Z,47.97
2023-02-06T11:49:48.805Z,45.13
2023-02-06T11:51:52.145Z,39.95
2023-02-06T11:54:02.018Z,37.17
2023-02-06T11:56:05.345Z,36.67
2023-02-06T11:58:12.530Z,36.42
2023-02-06T12:00:23.079Z,40.97
2023-02-06T12:02:30.343Z,71.50
2023-02-06T12:04:36.874Z,49.15
2023-02-06T12:06:40.614Z,62.33
2023-02-06T12:08:49.270Z,79.63
2023-02-06T12:11:02.962Z,47.40
2023-02-06T12:13:09.213Z,35.20
2023-02-06T12:15:44.752Z,41.25
2023-02-06T12:17:52.672Z,57.25
2023-02-06T12:20:02.874Z,39.08
2023-02-06T12:22:17.683Z,54.92
2023-02-06T12:24:37.655Z,63.95
2023-02-06T12:26:40.537Z,38.67
2023-02-06T12:29:06.420Z,53.03
2023-02-06T12:31:13.947Z,46.42
2023-02-06T12:33:20.394Z,32.38
2023-02-06T12:35:33.213Z,33.50
2023-02-06T12:37:44.002Z,46.55
2023-02-06T12:39:45.509Z,39.17
2023-02-06T12:42:05.604Z,78.32
2023-02-06T12:44:16.578Z,47.85
2023-02-06T12:46:22.799Z,33.33
2023-02-06T12:48:50.453Z,29.52
2023-02-06T12:51:10.134Z,77.32
2023-02-06T12:53:33.983Z,31.77
2023-02-06T12:55:40.663Z,28.35
2023-02-06T12:57:42.570Z,28.77
2023-02-06T12:59:58.962Z,26.08
2023-02-06T13:02:18.916Z,34.05
2023-02-06T13:04:24.116Z,26.25
2023-02-06T13:06:29.762Z,27.95
2023-02-06T13:08:42.220Z,26.90
2023-02-06T13:10:44.178Z,25.50
2023-02-06T13:12:54.152Z,28.77
2023-02-06T13:14:58.306Z,37.05
2023-02-06T13:17:07.218Z,27.58
2023-02-06T13:19:38.824Z,27.58
2023-02-06T13:21:40.316Z,27.88
2023-02-06T13:24:03.759Z,27.90
2023-02-06T13:26:05.429Z,22.13
2023-02-06T13:28:22.518Z,23.88
2023-02-06T13:30:23.948Z,23.75
2023-02-06T13:32:41.211Z,21.45
2023-02-06T13:34:50.920Z,29.27
2023-02-06T13:36:53.391Z,34.25
2023-02-06T13:39:13.937Z,20.75
2023-02-06T13:41:15.488Z,20.30
2023-02-06T13:43:21.571Z,18.73
2023-02-06T13:45:58.597Z,25.25
2023-02-06T13:48:20.934Z,24.98
2023-02-06T13:50:37.536Z,21.20
2023-02-06T13:53:00.995Z,28.52
2023-02-06T13:55:29.137Z,31.30
2023-02-06T13:57:54.421Z,34.75
2023-02-06T14:00:09.241Z,38.38
2023-02-06T14:02:23.116Z,36.40
2023-02-06T14:06:46.259Z,35.65
2023-02-06T14:09:16.132Z,28.60
2023-02-06T14:11:41.580Z,35.13
2023-02-06T14:14:17.144Z,35.28
2023-02-06T14:16:24.412Z,41.40
2023-02-06T14:19:01.105Z,54.45
2023-02-06T14:21:18.239Z,51.63
2023-02-06T14:23:55.562Z,50.13
2023-02-06T14:26:06.043Z,40.15
2023-02-06T14:28:35.058Z,37.40
2023-02-06T14:30:48.603Z,38.17
2023-02-06T14:33:02.132Z,40.83
2023-02-06T14:35:15.902Z,38.78
2023-02-06T14:37:45.335Z,47.25
2023-02-06T14:39:54.327Z,44.92
2023-02-06T14:41:56.908Z,59.97
2023-02-06T14:43:59.511Z,68.15
2023-02-06T14:46:07.852Z,74.30
2023-02-06T14:48:34.288Z,48.63
2023-02-06T14:50:39.262Z,46.33
2023-02-06T14:52:40.802Z,57.40
2023-02-06T14:54:42.433Z,252.65
2023-02-06T14:56:43.881Z,233.55
2023-02-06T14:58:46.135Z,132.45
2023-02-06T15:00:47.873Z,125.93
2023-02-06T15:03:13.860Z,151.75
2023-02-06T15:05:25.913Z,146.57
2023-02-06T15:07:30.200Z,65.28
2023-02-06T15:09:34.348Z,50.67
2023-02-06T15:11:35.770Z,53.80
2023-02-06T15:13:50.135Z,55.47
2023-02-06T15:15:54.515Z,56.50
2023-02-06T15:18:08.418Z,53.60
2023-02-06T15:22:40.774Z,116.60
2023-02-06T15:25:10.792Z,83.32
2023-02-06T15:27:26.543Z,112.28
2023-02-06T15:29:28.357Z,243.27
2023-02-06T15:31:30.999Z,128.18
2023-02-06T15:33:34.419Z,238.60
2023-02-06T15:35:41.285Z,84.45
2023-02-06T15:37:43.824Z,69.32
2023-02-06T15:39:45.542Z,80.07
2023-02-06T15:41:52.192Z,79.45
2023-02-06T15:43:59.963Z,96.88
2023-02-06T15:46:03.016Z,111.65
2023-02-06T15:48:12.290Z,108.50
2023-02-06T15:50:19.207Z,90.00
2023-02-06T15:52:36.426Z,108.50
2023-02-06T15:54:39.757Z,191.77
2023-02-06T15:56:43.008Z,100.30
2023-02-06T15:58:45.179Z,182.75
2023-02-06T16:00:53.019Z,861.28
2023-02-06T16:02:59.156Z,693.80
2023-02-06T16:05:01.984Z,620.97
2023-02-06T16:07:22.424Z,120.82
2023-02-06T16:09:25.704Z,117.07
2023-02-06T16:11:34.365Z,343.15
2023-02-06T16:13:35.944Z,172.68
2023-02-06T16:15:39.641Z,228.50
2023-02-06T16:17:41.335Z,189.68
2023-02-06T16:19:49.683Z,129.57
2023-02-06T16:22:26.889Z,126.72
2023-02-06T16:24:28.541Z,91.55
2023-02-06T16:26:32.559Z,117.57
2023-02-06T16:28:41.512Z,142.35
2023-02-06T16:30:43.086Z,269.38
2023-02-06T16:32:44.575Z,213.82
2023-02-06T16:34:46.919Z,437.67
2023-02-06T16:36:48.665Z,156.75
2023-02-06T16:39:02.653Z,83.68
2023-02-06T16:41:24.199Z,62.35
2023-02-06T16:43:27.627Z,61.70
2023-02-06T16:45:29.041Z,71.30
2023-02-06T16:47:30.416Z,89.22
2023-02-06T16:49:31.879Z,77.35
2023-02-06T16:51:33.286Z,129.13
2023-02-06T16:53:34.718Z,343.10
2023-02-06T16:55:36.643Z,316.38
2023-02-06T16:57:42.613Z,251.73
2023-02-06T16:59:44.026Z,162.82
2023-02-06T17:01:45.628Z,208.98
2023-02-06T17:03:47.176Z,363.92
2023-02-06T17:05:49.756Z,492.73
2023-02-06T17:07:52.258Z,550.07
2023-02-06T17:09:56.030Z,558.50
2023-02-06T17:11:57.417Z,572.10
2023-02-06T17:13:59.118Z,396.70
2023-02-06T17:16:01.013Z,464.27
2023-02-06T17:18:02.432Z,574.33
2023-02-06T17:20:04.780Z,539.45
2023-02-06T17:22:07.067Z,248.40
2023-02-06T17:24:08.487Z,277.27
2023-02-06T17:26:15.315Z,380.75
2023-02-06T17:28:19.145Z,388.65
2023-02-06T17:30:23.075Z,236.23
2023-02-06T17:32:24.825Z,156.80
2023-02-06T17:34:26.901Z,138.93
2023-02-06T17:36:28.307Z,134.43
2023-02-06T17:38:29.991Z,100.88
2023-02-06T17:40:34.327Z,79.22
2023-02-06T17:42:35.763Z,79.88
2023-02-06T17:44:37.714Z,81.18
2023-02-06T17:46:39.482Z,245.73
2023-02-06T17:48:41.001Z,243.13
2023-02-06T17:50:42.880Z,92.40
2023-02-06T17:52:44.476Z,103.07
2023-02-06T17:54:45.927Z,85.88
2023-02-06T17:56:47.503Z,83.72
2023-02-06T17:58:49.192Z,82.75
2023-02-06T18:00:50.618Z,80.07
2023-02-06T18:02:54.149Z,110.97
2023-02-06T18:04:55.636Z,106.10
2023-02-06T18:06:57.117Z,128.70
2023-02-06T18:08:58.707Z,78.32
2023-02-06T18:11:00.169Z,83.38
2023-02-06T18:13:01.580Z,358.08
2023-02-06T18:15:04.777Z,225.05
2023-02-06T18:17:06.502Z,198.45
2023-02-06T18:19:07.992Z,124.90
2023-02-06T18:21:09.647Z,101.20
2023-02-06T18:23:11.803Z,91.20
2023-02-06T18:25:14.913Z,93.55
2023-02-06T18:27:17.747Z,92.22
2023-02-06T18:29:19.143Z,105.50
2023-02-06T18:31:31.802Z,101.20
2023-02-06T18:33:34.148Z,78.22
2023-02-06T18:35:39.559Z,78.22
2023-02-06T18:37:41.287Z,79.53
2023-02-06T18:39:42.980Z,122.80
2023-02-06T18:41:44.379Z,118.75
2023-02-06T18:43:45.752Z,124.40
2023-02-06T18:45:47.430Z,116.50
2023-02-06T18:47:49.119Z,107.65
2023-02-06T18:49:50.564Z,112.03
2023-02-06T18:51:52.171Z,99.32
2023-02-06T18:53:53.587Z,96.55
2023-02-06T18:55:58.440Z,115.65
2023-02-06T18:57:59.996Z,119.57
2023-02-06T19:00:01.458Z,124.13
2023-02-06T19:02:02.999Z,133.10
2023-02-06T19:04:04.845Z,144.75
2023-02-06T19:06:14.885Z,177.93
2023-02-06T19:08:16.270Z,151.70
2023-02-06T19:10:19.006Z,210.57
2023-02-06T19:12:20.403Z,168.60
2023-02-06T19:14:21.829Z,178.77
2023-02-06T19:16:23.460Z,165.35
2023-02-06T19:18:37.648Z,192.88
2023-02-06T19:20:43.483Z,169.00
2023-02-06T19:22:45.000Z,167.27
2023-02-06T19:24:46.385Z,159.02
2023-02-06T19:26:47.781Z,343.13
2023-02-06T19:28:49.999Z,353.13
2023-02-06T19:30:51.469Z,378.02
2023-02-06T19:32:52.901Z,328.75
2023-02-06T19:34:54.813Z,309.35
2023-02-06T19:36:56.230Z,364.83
2023-02-06T19:39:00.483Z,272.50
2023-02-06T19:41:16.811Z,236.45
2023-02-06T19:43:18.635Z,237.38
2023-02-06T19:45:20.034Z,217.27
2023-02-06T19:47:22.007Z,198.88
2023-02-06T19:49:24.336Z,186.85
2023-02-06T19:51:30.348Z,135.55
2023-02-06T19:53:31.992Z,168.18
2023-02-06T19:55:33.543Z,206.43
2023-02-06T19:57:37.200Z,168.98
2023-02-06T19:59:40.895Z,202.38
2023-02-06T20:01:42.328Z,186.93
2023-02-06T20:03:44.347Z,202.13
2023-02-06T20:05:45.880Z,203.77
2023-02-06T20:07:47.273Z,161.27
2023-02-06T20:09:48.770Z,158.38
2023-02-06T20:11:50.936Z,159.75
2023-02-06T20:13:52.362Z,233.18
2023-02-06T20:15:53.772Z,221.88
2023-02-06T20:17:55.507Z,254.45
2023-02-06T20:19:58.901Z,294.70
2023-02-06T20:24:04.853Z,278.42
2023-02-06T20:26:06.301Z,291.55
2023-02-06T20:28:07.736Z,344.77
2023-02-06T20:30:09.841Z,314.52
2023-02-06T20:32:11.290Z,323.45
2023-02-06T20:34:13.242Z,232.63
2023-02-06T20:36:18.451Z,211.75
2023-02-06T20:38:19.844Z,225.07
2023-02-06T20:40:21.244Z,220.50
2023-02-06T20:42:22.954Z,192.75
2023-02-06T20:44:24.381Z,231.60
2023-02-06T20:46:27.378Z,204.90
2023-02-06T20:48:29.446Z,245.38
2023-02-06T20:50:30.987Z,269.25
2023-02-06T20:52:33.261Z,239.20
2023-02-06T20:54:34.739Z,235.27
2023-02-06T20:56:36.161Z,186.38
2023-02-06T20:58:37.718Z,247.40
2023-02-06T21:00:39.426Z,336.48
2023-02-06T21:02:40.930Z,366.30
2023-02-06T21:04:42.506Z,405.33
2023-02-06T21:06:45.110Z,258.98
2023-02-06T21:08:48.382Z,139.53
2023-02-06T21:10:50.854Z,109.47
2023-02-06T21:12:52.535Z,93.10
2023-02-06T21:14:54.288Z,129.85
2023-02-06T21:16:56.584Z,207.63
2023-02-06T21:18:58.809Z,199.00
2023-02-06T21:21:06.838Z,212.10
2023-02-06T21:23:08.321Z,178.82
2023-02-06T21:25:09.947Z,176.43
2023-02-06T21:27:11.356Z,183.00
2023-02-06T21:29:14.339Z,152.75
2023-02-06T21:31:20.051Z,133.57
2023-02-06T21:33:21.495Z,163.88
2023-02-06T21:35:23.044Z,162.32
2023-02-06T21:37:24.898Z,159.27
2023-02-06T21:39:26.368Z,152.98
2023-02-06T21:41:28.251Z,153.90
2023-02-06T21:43:29.768Z,164.68
2023-02-06T21:45:31.167Z,146.90
2023-02-06T21:47:34.024Z,159.68
2023-02-06T21:49:35.541Z,143.27
2023-02-06T21:51:37.312Z,129.45
2023-02-06T21:53:39.210Z,123.35
2023-02-06T21:55:44.752Z,121.90
2023-02-06T21:57:46.141Z,121.65
2023-02-06T21:59:47.543Z,134.25
2023-02-06T22:01:49.291Z,149.05
2023-02-06T22:03:51.416Z,148.40
2023-02-06T22:05:52.872Z,171.65
2023-02-06T22:07:54.516Z,136.77
2023-02-06T22:09:55.931Z,123.32
2023-02-06T22:11:57.372Z,113.78
2023-02-06T22:14:01.743Z,119.60
2023-02-06T22:16:03.319Z,119.20
2023-02-06T22:18:04.828Z,123.70
2023-02-06T22:20:06.684Z,112.07
2023-02-06T22:22:08.091Z,113.63
2023-02-06T22:24:11.532Z,126.70
2023-02-06T22:28:15.899Z,139.75
2023-02-06T22:30:17.537Z,120.07
2023-02-06T22:32:19.217Z,147.77
2023-02-06T22:34:21.081Z,167.88
2023-02-06T22:36:25.177Z,119.70
2023-02-06T22:38:26.774Z,138.60
2023-02-06T22:40:28.215Z,142.55
2023-02-06T22:42:29.661Z,150.55
2023-02-06T22:44:31.236Z,156.30
2023-02-06T22:46:36.447Z,146.82
2023-02-06T22:48:38.912Z,123.30
2023-02-06T22:50:40.597Z,119.97
2023-02-06T22:52:42.012Z,130.60
2023-02-06T22:54:43.462Z,126.32
2023-02-06T22:56:45.339Z,136.80
2023-02-06T22:58:48.098Z,126.35
2023-02-06T23:00:49.569Z,118.65
2023-02-06T23:02:51.098Z,125.22
2023-02-06T23:04:52.512Z,116.45
2023-02-06T23:06:54.161Z,135.77
2023-02-06T23:08:56.813Z,132.60
2023-02-06T23:10:58.256Z,119.25
2023-02-06T23:12:59.640Z,115.07
2023-02-06T23:15:01.196Z,116.00
2023-02-06T23:17:03.189Z,125.57
2023-02-06T23:19:06.465Z,123.50
2023-02-06T23:21:10.856Z,126.32
2023-02-06T23:23:12.319Z,135.48
2023-02-06T23:25:13.767Z,238.50
2023-02-06T23:27:15.512Z,220.65
2023-02-06T23:29:18.988Z,137.70
2023-02-06T23:33:22.734Z,216.43
2023-02-06T23:35:24.128Z,200.55
2023-02-06T23:37:25.525Z,249.93
2023-02-06T23:39:27.320Z,267.15
2023-02-06T23:41:29.026Z,276.10
2023-02-06T23:43:30.402Z,190.80
2023-02-06T23:45:32.546Z,297.73
2023-02-06T23:47:34.650Z,170.00
2023-02-06T23:49:36.180Z,173.38
2023-02-06T23:51:38.112Z,166.85
2023-02-06T23:53:39.558Z,201.85
2023-02-06T23:55:40.980Z,294.98
2023-02-06T23:57:42.868Z,275.10
2023-02-06T23:59:46.598Z,196.98
